Detalii statie FERMA VISANI-IMB [000011A7]

Toti senzorii

Date Temperatura solului [C]Precipitatii [mm]Voltaj baterie [mV]Leaf Wetness [Min]HC Air temperature [C]HC Relative humidity [%]Punctul de roua [C]
medieminmaxsumaultimatimpmedieminmaxmediemediemin
2019-10-19 23:00:00 0 6582 30 11.19 10.64 11.54 100 11.1 10.6
2019-10-19 23:30:00 0 6582 30 10.53 10.31 10.77 100 10.4 10.3
2019-10-20 00:00:00 0 6582 30 10.82 10.48 11.35 100 10.7 10.4
2019-10-20 00:30:00 0 6572 30 11.72 11.16 12 100 11.6 11.1
2019-10-20 01:00:00 0 6562 30 11.69 11.63 11.77 100 11.6 11.6
2019-10-20 01:30:00 0 6572 30 10.77 10.32 11.15 100 10.7 10.3
2019-10-20 02:00:00 0 6562 30 9.85 9.66 10.32 100 9.8 9.6
2019-10-20 02:30:00 0 6562 30 9.58 9.02 9.93 100 9.5 9
2019-10-20 03:00:00 0 6542 30 8.93 8.76 9.28 100 8.8 8.7
2019-10-20 03:30:00 0 6542 30 9.79 9.16 10.12 100 9.7 9.1
2019-10-20 04:00:00 0 6532 30 9.59 9.32 9.92 100 9.5 9.3
2019-10-20 04:30:00 0.2 6532 30 10.09 9.9 10.18 100 10 9.9
2019-10-20 05:00:00 0 6532 30 10.13 9.71 10.33 100 10.1 9.7
2019-10-20 05:30:00 0 6522 30 8.87 8.45 9.44 100 8.8 8.4
2019-10-20 06:00:00 0 6522 30 8.15 7.8 8.6 100 8.1 7.8
2019-10-20 06:30:00 0 6512 30 7.65 7.29 8.04 100 7.5 7.2
2019-10-20 07:00:00 0 6512 30 7.35 7.15 7.63 100 7.3 7.1
2019-10-20 07:30:00 0 6512 30 6.75 6.47 7.06 100 6.7 6.4
2019-10-20 08:00:00 0 6512 30 6.72 6.35 7.28 100 6.6 6.3
2019-10-20 08:30:00 0 6542 30 7.93 7.47 8.77 100 7.9 7.4
2019-10-20 09:00:00 0 6582 30 9.51 8.75 10.39 100 9.4 8.7
2019-10-20 09:30:00 0 6728 30 12.1 10.59 13.94 100 12 10.5
2019-10-20 10:00:00 0 6748 30 14.63 13.57 15.81 100 14.5 13.5
2019-10-20 10:30:00 0 6756 15 16.4 16.01 16.97 100 16.3 16
2019-10-20 11:00:00 0 6728 0 17.63 17.05 17.95 79.96 13.3 6.4
2019-10-20 11:30:00 0 6816 0 18.51 18.33 18.71 0 0 0
2019-10-20 12:00:00 0 6854 0 18.87 18.72 19.12 0 0 0
2019-10-20 12:30:00 0 6864 0 20.04 19.39 20.71 0 0 0
2019-10-20 13:00:00 0 6864 0 20.99 20.53 21.39 0 0 0
2019-10-20 13:30:00 0 6874 0 21.95 21.68 22.16 0 0 0
2019-10-20 14:00:00 0 6884 0 22.64 22.28 22.87 0 0 0
2019-10-20 14:30:00 0 6914 0 23.37 23.21 23.58 0 0 0
2019-10-20 15:00:00 0 6904 0 23.68 23.48 23.91 0 0 0
2019-10-20 15:30:00 0.2 6914 0 23.93 23.72 24.25 0 0 0
2019-10-20 16:00:00 0 6914 0 24 23.93 24.16 0 0 0
2019-10-20 16:30:00 0 6914 0 23.87 23.68 24.06 0 0 0
2019-10-20 17:00:00 0 6826 0 23.4 23.29 23.59 0 0 0
2019-10-20 17:30:00 0 6708 0 22.71 22.23 23.12 0 0 0
2019-10-20 18:00:00 0 6640 0 21.14 20.37 21.94 0 0 0
2019-10-20 18:30:00 0 6620 0 19.42 18.88 20.07 0 0 0
2019-10-20 19:00:00 0 6610 0 18.28 17.89 18.62 0 0 0
2019-10-20 19:30:00 0 6610 0 17.43 17.11 17.69 0 0 0
2019-10-20 20:00:00 0 6600 0 16.21 15.69 16.84 0 0 0
2019-10-20 20:30:00 0 6600 0 15.27 15.14 15.5 2.86 0
2019-10-20 21:00:00 0 6572 0 15.09 15.05 15.14 44.51 0
2019-10-20 21:30:00 0 6600 0 14.73 14.57 14.98 0 0 0
2019-10-20 22:00:00 0 6590 0 14.58 14.54 14.63 16.66 0
2019-10-20 22:30:00 0 6600 0 14.94 14.72 15.21 100 14.9 14.7